Time;durP1;ratioP1;P1;durP2;ratioP2;P2;SDS_P1;SDS_P2;PMS_P1;PMS_P2;Temp;Humidity;BMP_temperature;BMP_pressure;BME280_temperature;BME280_humidity;BME280_pressure;Samples;Min_cycle;Max_cycle;Signal;HPM_P1;HPM_P2
2022/11/09 00:01:26;;;;;;;;;;;12.50;1.00;;;;;;5056152;28;19955;-75
2022/11/09 00:03:59;;;;;;;;;;;12.40;1.00;;;;;;5055951;28;19928;-77
2022/11/09 00:06:25;;;;;;;;;;;12.40;1.00;;;;;;5055841;28;19958;-75
2022/11/09 00:08:51;;;;;;;;;;;12.40;1.00;;;;;;5055772;28;19909;-76
2022/11/09 00:11:17;;;;;;;;;;;12.30;1.00;;;;;;5055590;28;19909;-75
2022/11/09 00:13:43;;;;;;;;;;;12.30;1.00;;;;;;5056014;28;19909;-76
2022/11/09 00:16:10;;;;;;;;;;;12.40;1.00;;;;;;5055543;28;19917;-74
2022/11/09 00:18:36;;;;;;;;;;;12.40;1.00;;;;;;5055624;28;20384;-79
2022/11/09 00:21:08;;;;;;;;;;;12.30;1.00;;;;;;5055512;28;19909;-77
2022/11/09 00:23:34;;;;;;;;;;;12.30;1.00;;;;;;5055599;28;19944;-78
2022/11/09 00:26:03;;;;;;;;;;;12.30;1.00;;;;;;5055415;28;20262;-75
2022/11/09 00:28:29;;;;;;;;;;;12.40;1.00;;;;;;5055188;28;20003;-74
2022/11/09 00:30:58;;;;;;;;;;;12.30;1.00;;;;;;5055386;28;19955;-75
2022/11/09 00:33:24;;;;;;;;;;;12.40;1.00;;;;;;5055373;28;19909;-77
2022/11/09 00:35:49;;;;;;;;;;;12.30;1.00;;;;;;5055243;28;19920;-75
2022/11/09 00:38:15;;;;;;;;;;;12.30;1.00;;;;;;5055263;28;19916;-74
2022/11/09 00:40:40;;;;;;;;;;;12.30;1.00;;;;;;5055173;28;19909;-75
2022/11/09 00:43:06;;;;;;;;;;;12.30;1.00;;;;;;5037207;28;19909;-76
2022/11/09 00:45:31;;;;;;;;;;;12.40;1.00;;;;;;5055086;28;19908;-76
2022/11/09 00:47:57;;;;;;;;;;;12.40;1.00;;;;;;5055054;28;20009;-76
2022/11/09 00:50:23;;;;;;;;;;;12.40;1.00;;;;;;5055112;28;19915;-75
2022/11/09 00:52:48;;;;;;;;;;;12.30;1.00;;;;;;5055295;28;19913;-76
2022/11/09 00:55:15;;;;;;;;;;;12.30;99.90;;;;;;5054828;28;19912;-76
2022/11/09 00:57:40;;;;;;;;;;;12.30;99.90;;;;;;5054931;28;19908;-76
2022/11/09 01:00:06;;;;;;;;;;;12.30;99.90;;;;;;5054819;28;20004;-75
2022/11/09 01:02:31;;;;;;;;;;;12.30;99.90;;;;;;5054802;28;19915;-74
2022/11/09 01:04:58;;;;;;;;;;;12.30;99.90;;;;;;5054681;28;19913;-76
2022/11/09 01:07:24;;;;;;;;;;;12.30;99.90;;;;;;5036814;28;20274;-76
2022/11/09 01:09:50;;;;;;;;;;;12.30;99.90;;;;;;5054649;28;20007;-75
2022/11/09 01:12:15;;;;;;;;;;;12.30;99.90;;;;;;5036706;28;19909;-76
2022/11/09 01:14:41;;;;;;;;;;;12.30;99.90;;;;;;5054513;28;20007;-74
2022/11/09 01:17:06;;;;;;;;;;;12.40;99.90;;;;;;5054673;28;20376;-76
2022/11/09 01:19:32;;;;;;;;;;;12.40;99.90;;;;;;5036550;28;19916;-76
2022/11/09 01:21:57;;;;;;;;;;;12.30;99.90;;;;;;5054580;28;19912;-78
2022/11/09 01:24:23;;;;;;;;;;;12.30;99.90;;;;;;5054409;28;19909;-75
2022/11/09 01:26:49;;;;;;;;;;;12.20;99.90;;;;;;5054195;28;19908;-75
2022/11/09 01:29:14;;;;;;;;;;;12.20;1.00;;;;;;5036355;28;19912;-78
2022/11/09 01:31:40;;;;;;;;;;;12.20;1.00;;;;;;5054277;28;19913;-76
2022/11/09 01:34:05;;;;;;;;;;;12.20;1.00;;;;;;5054199;28;20425;-76
2022/11/09 01:36:31;;;;;;;;;;;12.20;1.00;;;;;;5053696;28;20431;-75
2022/11/09 01:38:56;;;;;;;;;;;12.20;1.00;;;;;;5054209;28;19913;-76
2022/11/09 01:41:23;;;;;;;;;;;12.20;1.00;;;;;;5054052;28;19909;-77
2022/11/09 01:44:05;;;;;;;;;;;12.20;1.00;;;;;;5054155;28;19916;-76
2022/11/09 01:46:39;;;;;;;;;;;12.10;1.00;;;;;;5036111;28;20292;-75
2022/11/09 01:49:09;;;;;;;;;;;12.00;1.00;;;;;;5053961;28;19916;-75
2022/11/09 01:51:38;;;;;;;;;;;12.00;1.00;;;;;;5054139;28;19976;-74
2022/11/09 01:54:09;;;;;;;;;;;12.00;1.00;;;;;;5053966;28;19988;-74
2022/11/09 01:56:35;;;;;;;;;;;11.90;1.00;;;;;;5053954;28;19920;-75
2022/11/09 01:59:04;;;;;;;;;;;11.90;1.00;;;;;;5053782;28;19909;-75
2022/11/09 02:01:30;;;;;;;;;;;11.90;1.00;;;;;;5054038;28;20326;-74
2022/11/09 02:03:58;;;;;;;;;;;11.90;1.00;;;;;;5053695;28;19915;-74
2022/11/09 02:06:25;;;;;;;;;;;11.90;1.00;;;;;;5053677;28;19908;-76
2022/11/09 02:08:52;;;;;;;;;;;11.90;1.00;;;;;;5053621;28;19959;-76
2022/11/09 02:11:19;;;;;;;;;;;11.80;1.00;;;;;;5053584;28;19958;-76
2022/11/09 02:13:51;;;;;;;;;;;11.80;1.00;;;;;;5053682;28;19909;-76
2022/11/09 02:16:17;;;;;;;;;;;11.80;1.00;;;;;;5035325;28;20340;-76
2022/11/09 02:18:51;;;;;;;;;;;11.80;1.00;;;;;;5053650;28;19935;-76
2022/11/09 02:21:17;;;;;;;;;;;11.80;90.80;;;;;;5053396;28;19909;-78
2022/11/09 02:23:42;;;;;;;;;;;11.90;5.10;;;;;;5053123;28;19918;-77
2022/11/09 02:26:14;;;;;;;;;;;12.00;66.70;;;;;;5053567;28;19909;-74
2022/11/09 02:28:41;;;;;;;;;;;12.00;62.90;;;;;;5053281;28;19947;-73
2022/11/09 02:31:09;;;;;;;;;;;12.10;10.50;;;;;;5035445;28;20395;-74
2022/11/09 02:33:51;;;;;;;;;;;12.00;59.80;;;;;;5053426;28;19940;-77
2022/11/09 02:36:17;;;;;;;;;;;12.10;98.30;;;;;;5053458;28;19923;-74
2022/11/09 02:38:42;;;;;;;;;;;12.10;94.40;;;;;;5053366;28;19909;-76
2022/11/09 02:41:10;;;;;;;;;;;12.10;95.10;;;;;;5053317;28;19909;-75
2022/11/09 02:43:36;;;;;;;;;;;12.10;89.20;;;;;;5053478;28;19908;-75
2022/11/09 02:46:02;;;;;;;;;;;12.10;98.60;;;;;;5053342;28;19932;-75
2022/11/09 02:48:28;;;;;;;;;;;12.10;99.90;;;;;;5053307;28;20005;-77
2022/11/09 02:50:53;;;;;;;;;;;12.10;99.90;;;;;;5057078;28;20342;-75
2022/11/09 02:53:19;;;;;;;;;;;12.10;99.90;;;;;;5039243;28;20004;-77
2022/11/09 02:55:44;;;;;;;;;;;12.10;99.90;;;;;;5057195;28;20311;-75
2022/11/09 02:58:10;;;;;;;;;;;12.10;99.90;;;;;;5057373;28;19940;-74
2022/11/09 03:00:35;;;;;;;;;;;12.00;99.90;;;;;;5057054;28;19908;-76
2022/11/09 03:03:01;;;;;;;;;;;12.00;99.90;;;;;;5057336;28;19949;-76
2022/11/09 03:05:27;;;;;;;;;;;12.00;99.90;;;;;;5039001;28;20361;-77
2022/11/09 03:07:52;;;;;;;;;;;12.00;99.90;;;;;;5056881;28;20377;-78
2022/11/09 03:10:18;;;;;;;;;;;12.00;99.90;;;;;;5057075;28;19971;-76
2022/11/09 03:12:43;;;;;;;;;;;11.90;93.70;;;;;;5056876;28;19916;-75
2022/11/09 03:15:09;;;;;;;;;;;11.90;99.90;;;;;;5038835;28;19934;-77
2022/11/09 03:17:35;;;;;;;;;;;11.80;99.90;;;;;;5056752;28;19909;-76
2022/11/09 03:20:00;;;;;;;;;;;11.80;99.90;;;;;;5056740;28;19995;-75
2022/11/09 03:22:26;;;;;;;;;;;11.90;99.90;;;;;;5056675;28;19990;-77
2022/11/09 03:24:52;;;;;;;;;;;11.80;99.90;;;;;;5056649;28;19913;-75
2022/11/09 03:27:17;;;;;;;;;;;11.90;99.90;;;;;;5056435;28;19923;-76
2022/11/09 03:29:43;;;;;;;;;;;11.90;99.90;;;;;;5056563;28;20301;-75
2022/11/09 03:32:08;;;;;;;;;;;11.80;99.90;;;;;;5056667;28;19908;-75
2022/11/09 03:34:34;;;;;;;;;;;11.80;99.90;;;;;;5056424;28;19912;-75
2022/11/09 03:37:00;;;;;;;;;;;11.70;99.90;;;;;;5056369;28;19909;-73
2022/11/09 03:39:25;;;;;;;;;;;11.70;99.90;;;;;;5038477;28;19916;-75
2022/11/09 03:41:51;;;;;;;;;;;11.70;99.90;;;;;;5056532;28;20285;-76
2022/11/09 03:44:16;;;;;;;;;;;11.70;99.90;;;;;;5056421;28;20001;-78
2022/11/09 03:46:42;;;;;;;;;;;11.60;99.90;;;;;;5056398;28;19909;-75
2022/11/09 03:49:07;;;;;;;;;;;11.60;99.90;;;;;;5056307;28;19970;-76
2022/11/09 03:51:33;;;;;;;;;;;11.70;99.90;;;;;;5056247;28;19909;-76
2022/11/09 03:53:59;;;;;;;;;;;11.70;99.90;;;;;;5056605;28;19909;-75
2022/11/09 03:56:24;;;;;;;;;;;11.60;99.90;;;;;;5055927;28;19912;-77
2022/11/09 03:58:50;;;;;;;;;;;11.60;99.90;;;;;;5056274;28;19915;-74
2022/11/09 04:01:15;;;;;;;;;;;11.60;99.90;;;;;;5055501;28;19955;-75
2022/11/09 04:03:41;;;;;;;;;;;11.60;99.90;;;;;;5055923;28;19908;-76
2022/11/09 04:06:06;;;;;;;;;;;11.50;99.90;;;;;;5056305;28;19909;-77
2022/11/09 04:08:32;;;;;;;;;;;11.50;99.90;;;;;;5055782;28;19909;-76
2022/11/09 04:10:59;;;;;;;;;;;11.50;99.90;;;;;;5055759;28;19912;-78
2022/11/09 04:13:24;;;;;;;;;;;11.50;99.90;;;;;;5037892;28;19913;-76
2022/11/09 04:15:50;;;;;;;;;;;11.50;99.90;;;;;;5055628;28;19967;-74
2022/11/09 04:18:16;;;;;;;;;;;11.50;99.90;;;;;;5055999;28;19963;-77
2022/11/09 04:20:41;;;;;;;;;;;11.50;99.90;;;;;;5055614;28;19909;-76
2022/11/09 04:23:09;;;;;;;;;;;11.40;99.90;;;;;;5055678;28;20282;-77
2022/11/09 04:25:36;;;;;;;;;;;11.40;99.90;;;;;;5055391;28;19942;-76
2022/11/09 04:28:03;;;;;;;;;;;11.50;99.90;;;;;;5055214;28;19931;-75
2022/11/09 04:30:34;;;;;;;;;;;11.40;99.90;;;;;;5054686;28;21310;-76
2022/11/09 04:33:00;;;;;;;;;;;11.40;99.90;;;;;;5055336;28;19959;-75
2022/11/09 04:35:27;;;;;;;;;;;11.40;99.90;;;;;;5055332;28;19959;-77
2022/11/09 04:37:57;;;;;;;;;;;11.40;99.90;;;;;;5055303;28;19913;-77
2022/11/09 04:40:23;;;;;;;;;;;11.40;99.90;;;;;;5055241;28;20362;-75
2022/11/09 04:42:48;;;;;;;;;;;11.40;99.90;;;;;;5055326;28;19916;-76
2022/11/09 04:45:14;;;;;;;;;;;11.40;99.90;;;;;;5055188;28;19908;-77
2022/11/09 04:47:39;;;;;;;;;;;11.40;99.90;;;;;;5055296;28;19909;-77
2022/11/09 04:50:05;;;;;;;;;;;11.50;99.90;;;;;;5055081;28;19909;-76
2022/11/09 04:52:31;;;;;;;;;;;11.50;99.90;;;;;;5055319;28;19909;-77
2022/11/09 04:54:56;;;;;;;;;;;11.40;99.90;;;;;;5054887;28;19999;-74
2022/11/09 04:57:22;;;;;;;;;;;11.50;99.90;;;;;;5054949;28;19908;-76
2022/11/09 04:59:48;;;;;;;;;;;11.40;99.90;;;;;;5055084;28;19912;-75
2022/11/09 05:02:13;;;;;;;;;;;11.40;99.90;;;;;;5036947;28;19909;-77
2022/11/09 05:04:39;;;;;;;;;;;11.40;99.90;;;;;;5054800;28;19909;-75
2022/11/09 05:07:04;;;;;;;;;;;11.40;99.90;;;;;;5054759;28;19909;-75
2022/11/09 05:09:30;;;;;;;;;;;11.40;99.90;;;;;;5055002;28;19916;-76
2022/11/09 05:11:56;;;;;;;;;;;11.40;99.90;;;;;;5053903;28;19913;-76
2022/11/09 05:14:21;;;;;;;;;;;11.40;99.90;;;;;;5036564;28;19909;-77
2022/11/09 05:16:47;;;;;;;;;;;11.40;99.90;;;;;;5036611;28;19920;-76
2022/11/09 05:19:12;;;;;;;;;;;11.50;99.90;;;;;;5054777;28;19996;-75
2022/11/09 05:21:38;;;;;;;;;;;11.50;99.90;;;;;;5054367;28;20261;-75
2022/11/09 05:24:04;;;;;;;;;;;11.50;99.90;;;;;;5054574;28;19908;-77
2022/11/09 05:26:37;;;;;;;;;;;11.50;99.90;;;;;;5054371;28;20284;-77
2022/11/09 05:29:03;;;;;;;;;;;11.50;99.90;;;;;;5053861;28;19928;-76
2022/11/09 05:31:29;;;;;;;;;;;11.60;99.90;;;;;;5054515;28;19912;-74
2022/11/09 05:33:56;;;;;;;;;;;11.60;99.90;;;;;;5054179;28;20377;-77
2022/11/09 05:36:22;;;;;;;;;;;11.70;99.90;;;;;;5036321;28;19924;-75
2022/11/09 05:38:49;;;;;;;;;;;11.80;99.90;;;;;;5036247;28;19916;-76
2022/11/09 05:41:27;;;;;;;;;;;11.70;99.90;;;;;;5036428;28;19913;-74
2022/11/09 05:43:58;;;;;;;;;;;11.70;99.90;;;;;;5052678;28;19913;-78
2022/11/09 05:46:25;;;;;;;;;;;11.70;99.90;;;;;;5054020;28;19974;-77
2022/11/09 05:48:52;;;;;;;;;;;11.80;99.90;;;;;;5054045;28;19909;-74
2022/11/09 05:51:18;;;;;;;;;;;11.80;99.90;;;;;;5054080;28;19919;-76
2022/11/09 05:53:44;;;;;;;;;;;11.80;99.90;;;;;;5053456;28;19909;-77
2022/11/09 05:56:11;;;;;;;;;;;11.80;99.90;;;;;;5053721;28;19913;-75
2022/11/09 05:58:40;;;;;;;;;;;11.80;99.90;;;;;;5036081;28;20509;-77
2022/11/09 06:01:06;;;;;;;;;;;11.90;99.90;;;;;;5053905;28;19909;-78
2022/11/09 06:03:32;;;;;;;;;;;11.90;91.40;;;;;;5035462;28;20292;-77
2022/11/09 06:06:05;;;;;;;;;;;11.90;42.50;;;;;;5053908;28;19920;-74
2022/11/09 06:08:31;;;;;;;;;;;11.90;12.90;;;;;;5053688;28;19909;-75
2022/11/09 06:10:58;;;;;;;;;;;11.90;70.10;;;;;;5035721;28;19916;-78
2022/11/09 06:13:23;;;;;;;;;;;11.90;34.10;;;;;;5054061;28;20369;-77
2022/11/09 06:15:53;;;;;;;;;;;11.80;27.20;;;;;;5053545;28;19920;-78
2022/11/09 06:18:18;;;;;;;;;;;11.80;37.60;;;;;;5053706;28;19952;-77
2022/11/09 06:20:44;;;;;;;;;;;11.80;10.90;;;;;;5053510;28;19909;-74
2022/11/09 06:23:10;;;;;;;;;;;11.80;36.60;;;;;;5053575;28;19909;-75
2022/11/09 06:25:36;;;;;;;;;;;11.70;53.20;;;;;;5053758;28;19915;-76
2022/11/09 06:28:02;;;;;;;;;;;11.70;45.30;;;;;;5054088;28;19920;-73
2022/11/09 06:30:27;;;;;;;;;;;11.70;64.00;;;;;;5053431;28;19913;-75
2022/11/09 06:32:57;;;;;;;;;;;11.70;69.10;;;;;;5053451;28;19909;-76
2022/11/09 06:35:23;;;;;;;;;;;11.70;40.20;;;;;;5053407;28;20384;-75
2022/11/09 06:37:52;;;;;;;;;;;11.70;1.00;;;;;;5053388;28;19908;-75
2022/11/09 06:40:18;;;;;;;;;;;11.70;53.70;;;;;;5035375;28;19913;-77
2022/11/09 06:42:43;;;;;;;;;;;11.70;1.00;;;;;;5053279;28;19916;-75
2022/11/09 06:45:09;;;;;;;;;;;11.70;14.00;;;;;;5053300;28;19909;-76
2022/11/09 06:47:35;;;;;;;;;;;11.70;1.00;;;;;;5053207;28;20293;-78
2022/11/09 06:50:00;;;;;;;;;;;11.70;1.00;;;;;;5053258;28;19909;-75
2022/11/09 06:52:26;;;;;;;;;;;11.80;1.00;;;;;;5053183;28;19909;-75
2022/11/09 06:54:51;;;;;;;;;;;11.70;1.00;;;;;;5053153;28;19917;-77
2022/11/09 06:57:17;;;;;;;;;;;11.70;1.00;;;;;;5035182;28;19908;-76
2022/11/09 06:59:42;;;;;;;;;;;11.70;1.00;;;;;;5053194;28;19947;-74
2022/11/09 07:02:13;;;;;;;;;;;11.70;1.00;;;;;;5053102;28;20332;-78
2022/11/09 07:04:39;;;;;;;;;;;11.70;1.00;;;;;;5053076;28;19931;-76
2022/11/09 07:07:05;;;;;;;;;;;11.80;1.00;;;;;;5053144;28;19909;-74
2022/11/09 07:09:31;;;;;;;;;;;11.70;1.00;;;;;;5053420;28;19909;-76
2022/11/09 07:11:57;;;;;;;;;;;11.80;1.00;;;;;;5053154;28;19916;-78
2022/11/09 07:14:22;;;;;;;;;;;11.90;1.00;;;;;;5053063;28;20393;-76
2022/11/09 07:16:48;;;;;;;;;;;11.70;1.00;;;;;;5053132;28;19912;-74
2022/11/09 07:19:13;;;;;;;;;;;11.80;1.00;;;;;;5053058;28;20000;-75
2022/11/09 07:21:39;;;;;;;;;;;11.80;1.00;;;;;;5053075;28;20380;-76
2022/11/09 07:24:05;;;;;;;;;;;11.70;1.00;;;;;;5053098;28;19909;-77
2022/11/09 07:26:30;;;;;;;;;;;11.70;1.00;;;;;;5052995;28;19909;-76
2022/11/09 07:28:56;;;;;;;;;;;11.80;1.00;;;;;;5031301;28;20012;-76
2022/11/09 07:31:21;;;;;;;;;;;11.80;1.00;;;;;;5033161;28;19913;-75
2022/11/09 07:33:48;;;;;;;;;;;11.80;1.00;;;;;;5033062;28;19913;-79
2022/11/09 07:36:13;;;;;;;;;;;11.80;1.00;;;;;;5035503;28;19913;-77
2022/11/09 07:38:39;;;;;;;;;;;11.80;1.00;;;;;;5036523;28;20011;-78
2022/11/09 07:41:05;;;;;;;;;;;11.80;1.00;;;;;;5036954;28;19992;-74
2022/11/09 07:43:30;;;;;;;;;;;11.80;1.00;;;;;;5036586;28;20277;-75
2022/11/09 07:45:56;;;;;;;;;;;11.90;1.00;;;;;;5036451;28;20008;-75
2022/11/09 07:48:21;;;;;;;;;;;12.10;1.00;;;;;;5036491;28;20419;-76
2022/11/09 07:50:47;;;;;;;;;;;12.00;1.00;;;;;;5036345;28;19920;-75
2022/11/09 07:53:13;;;;;;;;;;;12.00;1.00;;;;;;5036551;28;19910;-76
2022/11/09 07:55:39;;;;;;;;;;;12.10;1.00;;;;;;5036259;28;20376;-76
2022/11/09 07:58:06;;;;;;;;;;;12.10;1.00;;;;;;5036199;28;19909;-77
2022/11/09 08:00:33;;;;;;;;;;;12.30;1.00;;;;;;5036213;28;20002;-76
2022/11/09 08:03:00;;;;;;;;;;;12.50;1.00;;;;;;5035957;28;20296;-77
2022/11/09 08:05:25;;;;;;;;;;;12.70;1.00;;;;;;5036342;28;19996;-75
2022/11/09 08:07:58;;;;;;;;;;;12.60;99.90;;;;;;5034751;28;20012;-79
2022/11/09 08:10:24;;;;;;;;;;;12.80;1.00;;;;;;5036107;28;20332;-76
2022/11/09 08:12:54;;;;;;;;;;;12.90;99.90;;;;;;5036001;28;19963;-76
2022/11/09 08:15:23;;;;;;;;;;;12.90;99.90;;;;;;5035847;28;19913;-75
2022/11/09 08:17:49;;;;;;;;;;;12.90;99.90;;;;;;5036032;28;20373;-76
2022/11/09 08:20:15;;;;;;;;;;;13.10;99.90;;;;;;5035919;28;19920;-74
2022/11/09 08:22:41;;;;;;;;;;;13.30;99.90;;;;;;5035727;28;19909;-75
2022/11/09 08:25:07;;;;;;;;;;;13.40;99.90;;;;;;5035777;28;19909;-77
2022/11/09 08:27:38;;;;;;;;;;;13.60;99.90;;;;;;5041199;28;19921;-79
2022/11/09 08:30:12;;;;;;;;;;;13.70;99.90;;;;;;5037394;28;19909;-76
2022/11/09 08:32:38;;;;;;;;;;;14.00;99.90;;;;;;5055827;28;20034;-76
2022/11/09 08:35:05;;;;;;;;;;;13.90;99.90;;;;;;5037573;28;20103;-78
2022/11/09 08:37:41;;;;;;;;;;;13.80;99.90;;;;;;5055404;28;20410;-78
2022/11/09 08:40:07;;;;;;;;;;;13.90;99.90;;;;;;5055563;28;19915;-76
2022/11/09 08:42:33;;;;;;;;;;;14.10;99.90;;;;;;5055249;28;19916;-78
2022/11/09 08:44:59;;;;;;;;;;;14.10;99.90;;;;;;5055357;28;19909;-76
2022/11/09 08:47:26;;;;;;;;;;;14.30;99.90;;;;;;5055427;28;19909;-76
2022/11/09 08:49:51;;;;;;;;;;;14.40;99.90;;;;;;5055410;28;19909;-78
2022/11/09 08:52:17;;;;;;;;;;;14.50;99.90;;;;;;5055521;28;19909;-77
2022/11/09 08:54:46;;;;;;;;;;;14.80;99.90;;;;;;5055178;28;20438;-77
2022/11/09 08:57:11;;;;;;;;;;;14.70;99.90;;;;;;5037076;28;20002;-73
2022/11/09 08:59:37;;;;;;;;;;;14.80;99.90;;;;;;5055404;28;19913;-77
2022/11/09 09:02:03;;;;;;;;;;;14.80;99.90;;;;;;5054975;28;19909;-75
2022/11/09 09:04:29;;;;;;;;;;;14.60;99.90;;;;;;5054938;28;20379;-78
2022/11/09 09:06:54;;;;;;;;;;;14.50;99.90;;;;;;5054899;28;19915;-76
2022/11/09 09:09:20;;;;;;;;;;;14.70;99.90;;;;;;5054756;28;20284;-77
2022/11/09 09:11:45;;;;;;;;;;;14.70;99.90;;;;;;5054845;28;19995;-77
2022/11/09 09:14:11;;;;;;;;;;;14.80;99.90;;;;;;5054814;28;19909;-77
2022/11/09 09:16:36;;;;;;;;;;;15.30;99.90;;;;;;5054787;28;19920;-75
2022/11/09 09:19:02;;;;;;;;;;;16.30;99.90;;;;;;5036852;28;19958;-77
2022/11/09 09:21:28;;;;;;;;;;;16.40;99.90;;;;;;5054536;28;20396;-78
2022/11/09 09:23:53;;;;;;;;;;;16.40;99.90;;;;;;5054535;28;19909;-77
2022/11/09 09:26:19;;;;;;;;;;;16.60;99.90;;;;;;5054643;28;19956;-75
2022/11/09 09:28:44;;;;;;;;;;;16.90;99.90;;;;;;5054036;28;19968;-77
2022/11/09 09:31:10;;;;;;;;;;;17.30;96.20;;;;;;5054427;28;19909;-78
2022/11/09 09:33:36;;;;;;;;;;;17.80;86.10;;;;;;5054405;28;19908;-76
2022/11/09 09:36:01;;;;;;;;;;;18.20;70.20;;;;;;5054253;28;20400;-75
2022/11/09 09:38:27;;;;;;;;;;;18.80;49.70;;;;;;5054387;28;19909;-77
2022/11/09 09:40:58;;;;;;;;;;;19.00;45.50;;;;;;5054277;28;19908;-78
2022/11/09 09:43:38;;;;;;;;;;;19.20;49.00;;;;;;5054576;28;19916;-78
2022/11/09 09:46:06;;;;;;;;;;;20.00;29.00;;;;;;5036241;28;20262;-78
2022/11/09 09:48:52;;;;;;;;;;;19.60;23.50;;;;;;5054164;28;19916;-77
2022/11/09 09:51:21;;;;;;;;;;;19.20;28.60;;;;;;5053563;28;19990;-78
2022/11/09 09:53:48;;;;;;;;;;;18.80;31.50;;;;;;5054365;28;19941;-76
2022/11/09 09:56:25;;;;;;;;;;;18.20;36.90;;;;;;5036065;28;19917;-75
2022/11/09 09:59:11;;;;;;;;;;;19.20;34.80;;;;;;5053794;28;19959;-78
2022/11/09 10:01:39;;;;;;;;;;;21.10;14.00;;;;;;5022202;28;19978;-75
2022/11/09 10:04:14;;;;;;;;;;;21.40;12.40;;;;;;5053888;28;19996;-76
2022/11/09 10:06:47;;;;;;;;;;;22.70;5.20;;;;;;5053982;28;19909;-76
2022/11/09 10:09:16;;;;;;;;;;;21.10;4.00;;;;;;5054275;28;19913;-78
2022/11/09 10:11:41;;;;;;;;;;;20.90;8.00;;;;;;5053880;28;19909;-78
2022/11/09 10:14:18;;;;;;;;;;;22.60;4.30;;;;;;5053916;28;20427;-77
2022/11/09 10:16:54;;;;;;;;;;;21.60;1.50;;;;;;5053774;28;19936;-77
2022/11/09 10:19:43;;;;;;;;;;;21.70;3.50;;;;;;5053953;28;19930;-77
2022/11/09 10:22:18;;;;;;;;;;;23.50;1.00;;;;;;5054010;28;19909;-77
2022/11/09 10:24:50;;;;;;;;;;;22.50;1.00;;;;;;5053538;28;19916;-78
2022/11/09 10:27:24;;;;;;;;;;;22.00;1.00;;;;;;5053348;28;19923;-76
2022/11/09 10:29:50;;;;;;;;;;;20.90;1.00;;;;;;5053894;28;19909;-76
2022/11/09 10:32:16;;;;;;;;;;;22.20;1.00;;;;;;5053824;28;19916;-77
2022/11/09 10:34:59;;;;;;;;;;;24.30;1.00;;;;;;5053654;28;19909;-78
2022/11/09 10:37:35;;;;;;;;;;;24.90;1.00;;;;;;5053608;28;20373;-79
2022/11/09 10:40:02;;;;;;;;;;;24.40;1.00;;;;;;5053902;28;19909;-74
2022/11/09 10:42:28;;;;;;;;;;;24.90;1.00;;;;;;5053397;28;19908;-77
2022/11/09 10:44:53;;;;;;;;;;;23.60;1.00;;;;;;5053509;28;19932;-74
2022/11/09 10:47:21;;;;;;;;;;;24.10;1.00;;;;;;5053436;28;19909;-76
2022/11/09 10:50:04;;;;;;;;;;;24.70;1.00;;;;;;5053330;28;19909;-75
2022/11/09 10:52:31;;;;;;;;;;;24.40;1.00;;;;;;5053705;28;20265;-73
2022/11/09 10:55:15;;;;;;;;;;;23.10;1.00;;;;;;5053374;28;19927;-74
2022/11/09 10:58:01;;;;;;;;;;;22.30;1.00;;;;;;5035289;28;20304;-74
2022/11/09 11:00:26;;;;;;;;;;;21.20;1.00;;;;;;5052527;28;19913;-76
2022/11/09 11:02:53;;;;;;;;;;;20.90;1.00;;;;;;5035335;28;20012;-76
2022/11/09 11:05:18;;;;;;;;;;;20.20;1.00;;;;;;5053199;28;19912;-74
2022/11/09 11:07:44;;;;;;;;;;;20.30;3.30;;;;;;5053185;28;19975;-73
2022/11/09 11:10:10;;;;;;;;;;;20.30;2.40;;;;;;5054497;28;20422;-74
2022/11/09 11:12:36;;;;;;;;;;;20.00;3.10;;;;;;5057111;28;19913;-75
2022/11/09 11:15:01;;;;;;;;;;;19.30;9.10;;;;;;5038962;28;19959;-75
2022/11/09 11:17:33;;;;;;;;;;;19.80;9.10;;;;;;5056863;28;20358;-76
2022/11/09 11:20:16;;;;;;;;;;;20.40;4.60;;;;;;5057157;28;19916;-74
2022/11/09 11:22:42;;;;;;;;;;;20.90;1.90;;;;;;5056899;28;19908;-73
2022/11/09 11:25:16;;;;;;;;;;;22.40;1.00;;;;;;5056709;28;19913;-76
2022/11/09 11:27:46;;;;;;;;;;;24.30;1.00;;;;;;5056628;28;20366;-76
2022/11/09 11:30:27;;;;;;;;;;;25.50;1.00;;;;;;5056637;28;19913;-79
2022/11/09 11:32:53;;;;;;;;;;;25.30;1.00;;;;;;5056811;28;19913;-78
2022/11/09 11:35:21;;;;;;;;;;;26.00;1.00;;;;;;5056547;28;19994;-76
2022/11/09 11:37:50;;;;;;;;;;;26.70;1.00;;;;;;5056584;28;20003;-75
2022/11/09 11:40:29;;;;;;;;;;;27.80;1.00;;;;;;5038608;28;20269;-75
2022/11/09 11:43:02;;;;;;;;;;;28.20;1.00;;;;;;5056540;28;19908;-75
2022/11/09 11:45:32;;;;;;;;;;;28.20;1.00;;;;;;5056525;28;20007;-76
2022/11/09 11:47:58;;;;;;;;;;;26.80;1.00;;;;;;5056342;28;19913;-76
2022/11/09 11:50:27;;;;;;;;;;;26.40;1.00;;;;;;5056443;28;20342;-76
2022/11/09 11:53:11;;;;;;;;;;;26.80;1.00;;;;;;5056499;28;19912;-74
2022/11/09 11:55:37;;;;;;;;;;;27.40;1.00;;;;;;5056214;28;19920;-76
2022/11/09 11:58:20;;;;;;;;;;;28.00;1.00;;;;;;5056251;28;19909;-75
2022/11/09 12:00:55;;;;;;;;;;;25.70;1.00;;;;;;5056764;28;19909;-75
2022/11/09 12:03:20;;;;;;;;;;;26.10;1.00;;;;;;5055966;28;20388;-74
2022/11/09 12:06:01;;;;;;;;;;;26.50;1.00;;;;;;5056053;28;19996;-76
2022/11/09 12:08:30;;;;;;;;;;;25.50;1.00;;;;;;5056057;28;19936;-77
2022/11/09 12:11:10;;;;;;;;;;;26.30;1.00;;;;;;5056060;28;20004;-75
2022/11/09 12:13:56;;;;;;;;;;;25.80;1.00;;;;;;5056013;28;19909;-77
2022/11/09 12:16:22;;;;;;;;;;;26.50;1.00;;;;;;5055067;28;19939;-76
2022/11/09 12:18:47;;;;;;;;;;;27.20;1.00;;;;;;5055851;28;19916;-76
2022/11/09 12:21:16;;;;;;;;;;;27.90;1.00;;;;;;5055389;28;20403;-74
2022/11/09 12:23:44;;;;;;;;;;;27.30;1.00;;;;;;5055837;28;19908;-74
2022/11/09 12:26:19;;;;;;;;;;;24.80;1.00;;;;;;5037859;28;19952;-76
2022/11/09 12:29:06;;;;;;;;;;;24.30;1.00;;;;;;5055592;28;19921;-78
2022/11/09 12:31:48;;;;;;;;;;;24.20;1.00;;;;;;5055652;28;19909;-78
2022/11/09 12:34:26;;;;;;;;;;;24.00;1.00;;;;;;5055839;28;19916;-78
2022/11/09 12:36:51;;;;;;;;;;;24.40;1.00;;;;;;5055668;28;19912;-76
2022/11/09 12:39:29;;;;;;;;;;;25.90;1.00;;;;;;5055508;28;20388;-79
2022/11/09 12:41:58;;;;;;;;;;;28.30;1.00;;;;;;5055439;28;19909;-78
2022/11/09 12:44:28;;;;;;;;;;;26.60;1.00;;;;;;5055676;28;19915;-78
2022/11/09 12:47:17;;;;;;;;;;;28.30;1.00;;;;;;5055345;28;19994;-75
2022/11/09 12:49:44;;;;;;;;;;;27.70;1.00;;;;;;5055295;28;19975;-75
2022/11/09 12:52:12;;;;;;;;;;;26.60;1.00;;;;;;5055400;28;19913;-75
2022/11/09 12:54:40;;;;;;;;;;;25.00;1.00;;;;;;5055394;28;19909;-74
2022/11/09 12:57:07;;;;;;;;;;;25.90;1.00;;;;;;5055165;28;19916;-75
2022/11/09 12:59:45;;;;;;;;;;;23.50;1.00;;;;;;5055146;28;20019;-77
2022/11/09 13:02:19;;;;;;;;;;;22.60;1.00;;;;;;5055008;28;19908;-72
2022/11/09 13:04:53;;;;;;;;;;;22.60;1.00;;;;;;5055261;28;19909;-76
2022/11/09 13:07:31;;;;;;;;;;;23.00;1.00;;;;;;5055044;28;20364;-76
2022/11/09 13:09:58;;;;;;;;;;;25.30;1.00;;;;;;5054836;28;19909;-74
2022/11/09 13:12:30;;;;;;;;;;;25.80;1.00;;;;;;5054738;28;19966;-74
2022/11/09 13:14:56;;;;;;;;;;;28.50;1.00;;;;;;5054929;28;19919;-75
2022/11/09 13:17:24;;;;;;;;;;;30.30;1.00;;;;;;5054618;28;19991;-76
2022/11/09 13:19:51;;;;;;;;;;;29.60;1.00;;;;;;5054771;28;19909;-75
2022/11/09 13:22:18;;;;;;;;;;;31.40;1.00;;;;;;5054542;28;20000;-73
2022/11/09 13:25:22;;;;;;;;;;;32.60;1.00;;;;;;5054562;28;19909;-76
2022/11/09 13:27:48;;;;;;;;;;;33.70;1.00;;;;;;5053995;28;19921;-76
2022/11/09 13:30:22;;;;;;;;;;;33.40;1.00;;;;;;5054469;28;19915;-74
2022/11/09 13:33:09;;;;;;;;;;;33.80;1.00;;;;;;5053664;28;20335;-75
2022/11/09 13:35:41;;;;;;;;;;;34.10;1.00;;;;;;5054415;28;19919;-77
2022/11/09 13:38:15;;;;;;;;;;;34.10;1.00;;;;;;5054472;28;20373;-75
2022/11/09 13:40:41;;;;;;;;;;;34.20;1.00;;;;;;5054384;28;19909;-77
2022/11/09 13:43:09;;;;;;;;;;;32.90;1.00;;;;;;5054316;28;20423;-77
2022/11/09 13:45:40;;;;;;;;;;;32.20;1.00;;;;;;5054194;28;19908;-74
2022/11/09 13:48:21;;;;;;;;;;;32.30;1.00;;;;;;5054144;28;19909;-77
2022/11/09 13:50:51;;;;;;;;;;;32.60;1.00;;;;;;5054429;28;19908;-76
2022/11/09 13:53:28;;;;;;;;;;;33.30;1.00;;;;;;5054486;28;19908;-74
2022/11/09 13:55:54;;;;;;;;;;;32.80;1.00;;;;;;5054105;28;19913;-74
2022/11/09 13:58:19;;;;;;;;;;;32.10;1.00;;;;;;5053913;28;19908;-77
2022/11/09 14:00:46;;;;;;;;;;;31.20;1.00;;;;;;5054149;28;19996;-77
2022/11/09 14:03:22;;;;;;;;;;;31.50;1.00;;;;;;5053982;28;20373;-74
2022/11/09 14:05:53;;;;;;;;;;;27.80;1.00;;;;;;5053818;28;19913;-75
2022/11/09 14:08:21;;;;;;;;;;;28.60;1.00;;;;;;5035877;28;20003;-74
2022/11/09 14:10:59;;;;;;;;;;;30.20;1.00;;;;;;5053815;28;20331;-76
2022/11/09 14:13:32;;;;;;;;;;;31.60;1.00;;;;;;5053818;28;19916;-76
2022/11/09 14:16:03;;;;;;;;;;;32.50;1.00;;;;;;5054185;28;19919;-76
2022/11/09 14:18:39;;;;;;;;;;;32.60;1.00;;;;;;5053918;28;19912;-75
2022/11/09 14:21:29;;;;;;;;;;;31.90;1.00;;;;;;5053679;28;19908;-77
2022/11/09 14:24:00;;;;;;;;;;;31.60;1.00;;;;;;5053935;28;19912;-75
2022/11/09 14:26:26;;;;;;;;;;;31.10;1.00;;;;;;5053768;28;19915;-75
2022/11/09 14:28:51;;;;;;;;;;;29.80;1.00;;;;;;5052971;28;19921;-75
2022/11/09 14:31:24;;;;;;;;;;;29.20;1.00;;;;;;5053641;28;19915;-74